createdAt,value
2023-04-18T00:02:55.708Z,4.90
2023-04-18T00:06:22.565Z,3.50
2023-04-18T00:09:59.085Z,3.00
2023-04-18T00:13:38.647Z,3.90
2023-04-18T00:17:14.547Z,2.90
2023-04-18T00:20:54.445Z,2.40
2023-04-18T00:24:30.137Z,3.10
2023-04-18T00:28:08.280Z,2.60
2023-04-18T00:31:45.562Z,2.40
2023-04-18T00:35:43.104Z,2.20
2023-04-18T00:39:26.303Z,2.80
2023-04-18T00:43:14.058Z,6.30
2023-04-18T00:46:58.927Z,4.80
2023-04-18T00:50:24.305Z,3.90
2023-04-18T00:54:21.330Z,4.90
2023-04-18T00:58:05.578Z,8.20
2023-04-18T01:01:48.994Z,3.60
2023-04-18T01:05:35.595Z,3.10
2023-04-18T01:09:24.386Z,2.60
2023-04-18T01:13:16.473Z,1.80
2023-04-18T01:16:44.253Z,3.10
2023-04-18T01:20:22.040Z,2.60
2023-04-18T01:24:09.174Z,4.70
2023-04-18T01:27:58.450Z,2.10
2023-04-18T01:31:46.729Z,2.30
2023-04-18T01:35:37.488Z,4.40
2023-04-18T01:39:01.934Z,3.10
2023-04-18T01:42:58.811Z,4.20
2023-04-18T01:46:24.822Z,3.80
2023-04-18T01:50:01.214Z,3.90
2023-04-18T01:53:38.670Z,1.80
2023-04-18T01:57:38.260Z,3.50
2023-04-18T02:01:04.235Z,5.70
2023-04-18T02:04:41.694Z,4.40
2023-04-18T02:08:19.114Z,1.90
2023-04-18T02:12:15.854Z,2.30
2023-04-18T02:15:46.044Z,4.70
2023-04-18T02:19:40.569Z,1.30
2023-04-18T02:23:24.090Z,3.00
2023-04-18T02:27:07.409Z,3.00
2023-04-18T02:30:35.045Z,2.20
2023-04-18T02:34:11.301Z,3.10
2023-04-18T02:37:47.361Z,3.90
2023-04-18T02:41:24.724Z,5.80
2023-04-18T02:45:02.751Z,8.00
2023-04-18T02:48:40.270Z,5.20
2023-04-18T02:52:19.310Z,18.20
2023-04-18T02:56:16.452Z,18.60
2023-04-18T03:00:25.102Z,27.80
2023-04-18T03:03:58.121Z,18.00
2023-04-18T03:07:50.869Z,20.50
2023-04-18T03:11:29.500Z,22.40
2023-04-18T03:15:26.408Z,18.40
2023-04-18T03:18:52.799Z,38.80
2023-04-18T03:22:49.848Z,24.70
2023-04-18T03:26:39.792Z,23.40
2023-04-18T03:30:25.716Z,25.80
2023-04-18T03:33:51.754Z,22.10
2023-04-18T03:37:48.309Z,22.10
2023-04-18T03:41:20.883Z,20.20
2023-04-18T03:44:58.613Z,30.10
2023-04-18T03:48:37.451Z,8.20
2023-04-18T03:52:33.038Z,28.20
2023-04-18T03:56:20.746Z,34.20
2023-04-18T04:00:09.695Z,28.90
2023-04-18T04:03:51.153Z,28.80
2023-04-18T04:07:35.869Z,32.40
2023-04-18T04:11:25.503Z,27.50
2023-04-18T04:14:50.442Z,19.60
2023-04-18T04:18:46.711Z,41.60
2023-04-18T04:22:12.158Z,11.60
2023-04-18T04:25:49.608Z,36.70
2023-04-18T04:29:29.119Z,36.10
2023-04-18T04:33:28.083Z,47.80
2023-04-18T04:37:14.465Z,30.40
2023-04-18T04:41:11.163Z,46.50
2023-04-18T04:45:00.042Z,21.30
2023-04-18T04:48:25.357Z,30.30
2023-04-18T04:52:04.175Z,29.30
2023-04-18T04:56:01.113Z,35.80
2023-04-18T04:59:47.196Z,32.60
2023-04-18T05:03:30.487Z,36.90
2023-04-18T05:07:15.233Z,66.50
2023-04-18T05:10:58.893Z,43.90
2023-04-18T05:14:41.984Z,37.90
2023-04-18T05:18:08.682Z,55.30
2023-04-18T05:22:08.011Z,18.90
2023-04-18T05:25:33.785Z,13.40
2023-04-18T05:29:29.970Z,20.30
2023-04-18T05:33:13.986Z,38.10
2023-04-18T05:37:00.134Z,48.40
2023-04-18T05:40:27.379Z,29.30
2023-04-18T05:44:23.509Z,28.40
2023-04-18T05:48:06.691Z,41.80
2023-04-18T05:51:32.030Z,24.50
2023-04-18T05:55:27.369Z,28.80
2023-04-18T05:59:10.716Z,35.60
2023-04-18T06:02:35.025Z,40.30
2023-04-18T06:06:32.334Z,33.40
2023-04-18T06:10:17.594Z,26.40
2023-04-18T06:13:42.997Z,19.00
2023-04-18T06:17:40.414Z,27.10
2023-04-18T06:21:28.382Z,17.00
2023-04-18T06:25:15.530Z,25.50
2023-04-18T06:28:58.851Z,18.60
2023-04-18T06:32:24.658Z,26.50
2023-04-18T06:36:01.529Z,34.20
2023-04-18T06:39:57.974Z,17.80
2023-04-18T06:43:49.173Z,30.90
2023-04-18T06:47:42.735Z,33.80
2023-04-18T06:51:07.065Z,37.00
2023-04-18T06:55:03.902Z,30.50
2023-04-18T06:58:47.837Z,46.10
2023-04-18T07:02:31.013Z,42.00
2023-04-18T07:06:14.531Z,28.00
2023-04-18T07:09:38.813Z,29.50
2023-04-18T07:13:39.866Z,25.90
2023-04-18T07:17:23.308Z,23.10
2023-04-18T07:21:09.050Z,17.20
2023-04-18T07:24:34.177Z,34.30
2023-04-18T07:28:31.827Z,40.00
2023-04-18T07:32:15.327Z,40.40
2023-04-18T07:36:00.272Z,19.50
2023-04-18T07:39:24.899Z,27.50
2023-04-18T07:43:22.849Z,43.60
2023-04-18T07:47:10.782Z,36.00
2023-04-18T07:50:37.722Z,35.30
2023-04-18T07:54:33.317Z,30.60
2023-04-18T07:57:58.030Z,22.70
2023-04-18T08:01:54.895Z,10.10
2023-04-18T08:05:19.980Z,12.90
2023-04-18T08:09:15.984Z,12.10
2023-04-18T08:12:40.847Z,15.30
2023-04-18T08:16:17.951Z,13.30
2023-04-18T08:20:14.918Z,13.50
2023-04-18T08:23:58.584Z,11.50
2023-04-18T08:27:42.625Z,16.10
2023-04-18T08:31:36.364Z,11.20
2023-04-18T08:35:19.496Z,11.10
2023-04-18T08:38:47.612Z,11.10
2023-04-18T08:42:25.121Z,12.20
2023-04-18T08:46:23.500Z,7.10
2023-04-18T08:50:08.780Z,13.10
2023-04-18T08:53:34.272Z,10.30
2023-04-18T08:57:31.072Z,12.70
2023-04-18T09:00:55.531Z,15.10
2023-04-18T09:04:58.748Z,14.40
2023-04-18T09:08:24.980Z,10.90
2023-04-18T09:12:25.658Z,10.70
2023-04-18T09:16:09.280Z,15.60
2023-04-18T09:19:53.807Z,10.70
2023-04-18T09:23:39.749Z,9.50
2023-04-18T09:27:27.565Z,13.70
2023-04-18T09:31:15.939Z,10.10
2023-04-18T09:34:43.657Z,8.70
2023-04-18T09:38:18.542Z,11.20
2023-04-18T09:42:17.340Z,9.00
2023-04-18T09:45:42.277Z,5.20
2023-04-18T09:49:38.214Z,8.90
2023-04-18T09:53:02.889Z,9.40
2023-04-18T09:56:47.016Z,8.60
2023-04-18T10:00:43.880Z,8.70
2023-04-18T10:04:12.632Z,9.30
2023-04-18T10:08:08.694Z,10.50
2023-04-18T10:11:33.243Z,9.50
2023-04-18T10:15:30.995Z,12.50
2023-04-18T10:18:59.302Z,11.10
2023-04-18T10:22:55.897Z,4.40
2023-04-18T10:26:21.068Z,6.00
2023-04-18T10:29:58.071Z,10.50
2023-04-18T10:37:28.950Z,7.80
2023-04-18T10:41:27.773Z,7.30
2023-04-18T10:45:20.027Z,8.60
2023-04-18T10:48:44.634Z,5.80
2023-04-18T10:52:22.309Z,5.10
2023-04-18T10:56:01.112Z,7.80
2023-04-18T10:59:39.658Z,7.60
2023-04-18T11:03:15.663Z,7.80
2023-04-18T11:07:11.841Z,29.90
2023-04-18T11:10:36.420Z,14.00
2023-04-18T11:14:14.297Z,5.50
2023-04-18T11:18:10.681Z,7.10
2023-04-18T11:21:35.190Z,3.40
2023-04-18T11:25:36.849Z,6.40
2023-04-18T11:29:23.615Z,4.60
2023-04-18T11:33:16.192Z,3.70
2023-04-18T11:36:59.641Z,3.50
2023-04-18T11:40:24.979Z,3.90
2023-04-18T11:44:06.320Z,3.20
2023-04-18T11:47:41.988Z,6.50
2023-04-18T11:51:44.700Z,3.20
2023-04-18T11:55:29.350Z,3.20
2023-04-18T11:58:53.895Z,3.10
2023-04-18T12:02:46.535Z,5.50
2023-04-18T12:06:48.311Z,2.90
2023-04-18T12:10:32.223Z,5.10
2023-04-18T12:13:56.905Z,9.30
2023-04-18T12:17:38.355Z,5.10
2023-04-18T12:21:11.784Z,4.60
2023-04-18T12:25:13.991Z,8.80
2023-04-18T12:28:45.210Z,4.70
2023-04-18T12:32:37.424Z,4.70
2023-04-18T12:36:05.625Z,4.50
2023-04-18T12:39:41.991Z,4.20
2023-04-18T12:43:40.469Z,4.10
2023-04-18T12:47:08.891Z,5.90
2023-04-18T12:51:06.395Z,4.90
2023-04-18T12:54:34.426Z,4.60
2023-04-18T12:58:13.191Z,4.50
2023-04-18T13:02:06.660Z,5.60
2023-04-18T13:05:36.357Z,4.90
2023-04-18T13:09:12.449Z,3.90
2023-04-18T13:12:49.838Z,7.10
2023-04-18T13:16:44.445Z,2.70
2023-04-18T13:20:27.785Z,5.80
2023-04-18T13:24:11.621Z,6.60
2023-04-18T13:27:58.076Z,3.10
2023-04-18T13:31:22.357Z,6.20
2023-04-18T13:35:00.891Z,3.50
2023-04-18T13:38:56.649Z,3.60
2023-04-18T13:42:22.342Z,11.10
2023-04-18T13:46:19.096Z,8.80
2023-04-18T13:49:43.210Z,4.90
2023-04-18T13:53:41.302Z,1.90
2023-04-18T13:57:13.403Z,5.00
2023-04-18T14:00:43.170Z,9.40
2023-04-18T14:04:40.156Z,5.30
2023-04-18T14:08:23.229Z,4.60
2023-04-18T14:12:06.566Z,5.50
2023-04-18T14:15:51.605Z,4.10
2023-04-18T14:19:16.064Z,4.50
2023-04-18T14:23:12.459Z,5.30
2023-04-18T14:26:39.535Z,4.40
2023-04-18T14:30:33.309Z,7.90
2023-04-18T14:34:17.611Z,5.20
2023-04-18T14:37:43.294Z,4.50
2023-04-18T14:41:41.622Z,8.10
2023-04-18T14:45:08.363Z,4.60
2023-04-18T14:48:47.310Z,7.60
2023-04-18T14:52:21.042Z,4.70
2023-04-18T14:56:22.666Z,6.80
2023-04-18T14:59:49.021Z,8.40
2023-04-18T15:03:45.048Z,7.20
2023-04-18T15:07:32.161Z,6.10
2023-04-18T15:10:56.543Z,6.60
2023-04-18T15:14:36.372Z,3.40
2023-04-18T15:18:13.820Z,12.80
2023-04-18T15:21:50.151Z,5.60
2023-04-18T15:25:30.028Z,6.60
2023-04-18T15:29:10.553Z,3.70
2023-04-18T15:32:46.027Z,5.60
2023-04-18T15:36:39.243Z,7.30
2023-04-18T15:40:10.403Z,9.20
2023-04-18T15:43:46.940Z,6.90
2023-04-18T15:47:21.261Z,4.70
2023-04-18T15:50:58.983Z,5.30
2023-04-18T15:54:42.823Z,6.90
2023-04-18T15:58:14.159Z,6.10
2023-04-18T16:01:52.275Z,5.80
2023-04-18T16:05:48.946Z,8.50
2023-04-18T16:09:32.444Z,8.00
2023-04-18T16:13:16.530Z,8.70
2023-04-18T16:16:42.322Z,6.60
2023-04-18T16:20:23.251Z,7.10
2023-04-18T16:23:56.366Z,10.40
2023-04-18T16:27:54.622Z,7.60
2023-04-18T16:31:20.840Z,5.90
2023-04-18T16:34:58.254Z,6.10
2023-04-18T16:38:35.756Z,6.10
2023-04-18T16:42:15.921Z,6.70
2023-04-18T16:45:51.098Z,9.40
2023-04-18T16:49:48.968Z,5.10
2023-04-18T16:53:41.299Z,8.10
2023-04-18T16:57:28.658Z,7.10
2023-04-18T17:00:54.947Z,7.80
2023-04-18T17:04:33.555Z,4.70
2023-04-18T17:08:33.551Z,7.30
2023-04-18T17:12:22.374Z,9.30
2023-04-18T17:15:49.858Z,7.20
2023-04-18T17:19:46.420Z,7.30
2023-04-18T17:23:13.961Z,8.50
2023-04-18T17:26:51.597Z,7.50
2023-04-18T17:30:49.415Z,8.40
2023-04-18T17:34:32.599Z,16.60
2023-04-18T17:37:56.775Z,13.60
2023-04-18T17:42:12.227Z,10.60
2023-04-18T17:45:59.272Z,12.20
2023-04-18T17:49:45.731Z,14.70
2023-04-18T17:53:32.026Z,14.50
2023-04-18T17:56:58.677Z,16.10
2023-04-18T18:00:55.842Z,11.00
2023-04-18T18:04:25.833Z,14.70
2023-04-18T18:08:17.619Z,12.90
2023-04-18T18:11:44.414Z,17.90
2023-04-18T18:15:40.491Z,19.50
2023-04-18T18:19:23.717Z,16.00
2023-04-18T18:22:49.965Z,18.00
2023-04-18T18:26:46.660Z,17.50
2023-04-18T18:30:33.213Z,17.20
2023-04-18T18:33:59.824Z,19.90
2023-04-18T18:37:37.807Z,20.20
2023-04-18T18:41:15.319Z,17.30
2023-04-18T18:44:53.028Z,20.50
2023-04-18T18:48:51.144Z,19.70
2023-04-18T18:52:16.018Z,25.50
2023-04-18T18:55:54.892Z,28.50
2023-04-18T18:59:49.991Z,18.90
2023-04-18T19:03:36.023Z,19.70
2023-04-18T19:07:00.921Z,18.50
2023-04-18T19:10:39.083Z,14.60
2023-04-18T19:14:35.342Z,17.90
2023-04-18T19:18:00.231Z,13.50
2023-04-18T19:21:37.456Z,15.90
2023-04-18T19:25:18.125Z,15.00
2023-04-18T19:29:13.553Z,15.70
2023-04-18T19:32:42.923Z,20.10
2023-04-18T19:36:16.534Z,20.90
2023-04-18T19:39:54.426Z,22.40
2023-04-18T19:43:51.130Z,21.40
2023-04-18T19:47:17.784Z,18.20
2023-04-18T19:50:56.640Z,21.80
2023-04-18T19:54:33.514Z,20.10
2023-04-18T19:58:10.783Z,17.50
2023-04-18T20:02:07.383Z,23.40
2023-04-18T20:05:31.684Z,18.60
2023-04-18T20:09:16.669Z,22.80
2023-04-18T20:12:47.699Z,21.80
2023-04-18T20:16:24.656Z,18.30
2023-04-18T20:20:21.235Z,18.90
2023-04-18T20:24:08.978Z,15.60
2023-04-18T20:27:36.052Z,17.60
2023-04-18T20:31:30.190Z,25.40
2023-04-18T20:34:55.286Z,19.10
2023-04-18T20:38:36.939Z,19.30
2023-04-18T20:42:14.560Z,21.60
2023-04-18T20:46:07.505Z,19.00
2023-04-18T20:49:55.866Z,18.20
2023-04-18T20:53:21.263Z,17.30
2023-04-18T20:56:57.677Z,19.60
2023-04-18T21:00:36.702Z,19.90
2023-04-18T21:04:13.387Z,22.10
2023-04-18T21:07:50.998Z,26.30
2023-04-18T21:11:47.193Z,20.60
2023-04-18T21:15:12.131Z,20.90
2023-04-18T21:18:49.120Z,26.20
2023-04-18T21:22:26.851Z,22.60
2023-04-18T21:26:04.822Z,20.90
2023-04-18T21:30:07.900Z,21.60
2023-04-18T21:33:55.304Z,22.00
2023-04-18T21:37:20.904Z,22.10
2023-04-18T21:40:58.293Z,28.40
2023-04-18T21:44:55.051Z,25.70
2023-04-18T21:48:19.299Z,27.00
2023-04-18T21:52:15.870Z,23.20
2023-04-18T21:55:41.256Z,30.90
2023-04-18T21:59:39.532Z,30.20
2023-04-18T22:03:23.785Z,31.60
2023-04-18T22:06:49.358Z,28.50
2023-04-18T22:10:27.443Z,30.10
2023-04-18T22:14:07.765Z,33.90
2023-04-18T22:17:43.114Z,27.20
2023-04-18T22:21:38.925Z,23.80
2023-04-18T22:25:23.516Z,26.30
2023-04-18T22:29:06.937Z,26.30
2023-04-18T22:32:50.269Z,30.50
2023-04-18T22:36:14.782Z,29.70
2023-04-18T22:39:53.838Z,34.40
2023-04-18T22:43:32.206Z,34.50
2023-04-18T22:47:08.595Z,31.90
2023-04-18T22:51:06.812Z,30.80
2023-04-18T22:54:52.496Z,23.40
2023-04-18T22:58:17.699Z,26.90
2023-04-18T23:02:13.362Z,23.90
2023-04-18T23:05:57.646Z,20.20
2023-04-18T23:09:43.035Z,23.90
2023-04-18T23:13:10.429Z,23.00
2023-04-18T23:17:03.830Z,25.60
2023-04-18T23:20:28.006Z,17.30
2023-04-18T23:24:24.612Z,16.70
2023-04-18T23:27:50.997Z,16.50
2023-04-18T23:31:45.278Z,16.50
2023-04-18T23:35:28.640Z,19.30
2023-04-18T23:39:12.162Z,23.10
2023-04-18T23:42:56.386Z,22.60
2023-04-18T23:46:39.309Z,23.80
2023-04-18T23:50:03.519Z,22.30
2023-04-18T23:54:00.023Z,17.90
2023-04-18T23:57:43.689Z,17.20
